Archival Weather

Norman Y Mineta San Jose Intl

San Jose, California (KSJC)

Report from: Sunday, January 28, 2024 9:53 AM PST
Current time: Friday, June 14, 2024 4:23 AM PDT

Current weather – Weather history – Daily summaries
Weather forecast

Temperature15.6°C (60.1°F)
Dew point10.0°C (50.0°F)
Winds Calm
Visibility10 mi. (16.1 km)
Clouds Scattered clouds 15,000 ft. (4,572 m)
Altimeter30.17 in.Hg (1022 mB)
Relative humidity69 %
Density altitude-36 ft. (-11 m)
Sea-level pressure102.2 kPa (1022 mB, 30.17 in.Hg)
Max temp last 6 hours15.6°C (60.1°F)
Min temp last 6 hours10.0°C (50.0°F)
Remarks Automated weather observing station with precipitation discriminator
Pressure rising, then falling
Flight conditions Visual Meteorological Conditions
Raw dataKSJC 281753Z 00000KT 10SM SCT150 16/10 A3017 RMK AO2 SLP216 T01560100 10156 20100 50002
An error has occurred. This application may no longer respond until reloaded. Reload 🗙